TAF KINL
KINL 072335Z 0800/0824 VRB03KT P6SM SCT250 FM080600 VRB03KT P6SM BKN030 FM081100 00000KT P6SM BKN060 FM082300 16008G16KT P6SM OVC120=
METAR KINL
WC KINL
WS KINL
WV KINL